createdAt,value
2022-10-28T00:01:19.985Z,100489.53
2022-10-28T00:03:50.507Z,100486.59
2022-10-28T00:06:20.997Z,100497.66
2022-10-28T00:08:48.921Z,100487.25
2022-10-28T00:11:19.273Z,100482.06
2022-10-28T00:13:47.396Z,100487.94
2022-10-28T00:16:18.180Z,100493.03
2022-10-28T00:18:45.962Z,100477.34
2022-10-28T00:21:18.033Z,100482.44
2022-10-28T00:23:45.727Z,100483.03
2022-10-28T00:26:19.272Z,100484.19
2022-10-28T00:28:52.336Z,100481.00
2022-10-28T00:31:21.744Z,100487.47
2022-10-28T00:33:52.086Z,100491.00
2022-10-28T00:36:22.938Z,100476.66
2022-10-28T00:38:52.181Z,100468.59
2022-10-28T00:41:25.288Z,100471.53
2022-10-28T00:43:55.858Z,100478.63
2022-10-28T00:46:23.286Z,100481.44
2022-10-28T00:48:55.878Z,100470.56
2022-10-28T00:51:25.836Z,100471.72
2022-10-28T00:53:55.449Z,100480.41
2022-10-28T00:56:27.460Z,100472.72
2022-10-28T00:58:59.659Z,100469.66
2022-10-28T01:01:27.296Z,100474.97
2022-10-28T01:03:56.815Z,100467.19
2022-10-28T01:06:26.855Z,100476.91
2022-10-28T01:08:57.571Z,100473.78
2022-10-28T01:11:42.617Z,100479.78
2022-10-28T01:14:16.251Z,100476.44
2022-10-28T01:17:17.317Z,100477.97
2022-10-28T01:19:44.913Z,100479.16
2022-10-28T01:22:18.861Z,100475.94
2022-10-28T01:25:08.611Z,100478.19
2022-10-28T01:28:23.368Z,100482.50
2022-10-28T01:31:24.652Z,100474.91
2022-10-28T01:34:12.317Z,100468.84
2022-10-28T01:36:54.134Z,100473.88
2022-10-28T01:39:49.137Z,100466.84
2022-10-28T01:42:28.407Z,100465.09
2022-10-28T01:45:21.509Z,100456.31
2022-10-28T01:48:41.559Z,100462.22
2022-10-28T01:51:22.812Z,100466.75
2022-10-28T01:53:55.500Z,100461.66
2022-10-28T01:56:28.457Z,100452.22
2022-10-28T01:58:58.025Z,100459.97
2022-10-28T02:01:28.054Z,100459.38
2022-10-28T02:03:56.684Z,100463.00
2022-10-28T02:06:27.308Z,100460.53
2022-10-28T02:09:30.459Z,100460.91
2022-10-28T02:12:27.086Z,100461.97
2022-10-28T02:15:47.165Z,100470.50
2022-10-28T02:18:20.366Z,100455.16
2022-10-28T02:21:49.269Z,100470.75
2022-10-28T02:24:23.229Z,100466.69
2022-10-28T02:27:00.937Z,100471.00
2022-10-28T02:29:37.982Z,100454.31
2022-10-28T02:32:11.572Z,100449.19
2022-10-28T02:34:47.101Z,100460.69
2022-10-28T02:37:26.788Z,100456.94
2022-10-28T02:39:59.214Z,100464.00
2022-10-28T02:42:35.300Z,100454.69
2022-10-28T02:45:16.221Z,100454.69
2022-10-28T02:48:00.582Z,100455.75
2022-10-28T02:50:36.296Z,100463.31
2022-10-28T02:53:11.377Z,100466.69
2022-10-28T02:55:43.685Z,100464.22
2022-10-28T02:58:12.035Z,100469.31
2022-10-28T03:00:47.305Z,100460.69
2022-10-28T03:03:14.759Z,100467.88
2022-10-28T03:05:42.230Z,100468.06
2022-10-28T03:08:09.655Z,100471.19
2022-10-28T03:10:37.168Z,100465.31
2022-10-28T03:13:04.572Z,100470.50
2022-10-28T03:15:32.105Z,100464.44
2022-10-28T03:17:59.518Z,100457.44
2022-10-28T03:20:26.976Z,100469.81
2022-10-28T03:22:54.643Z,100470.91
2022-10-28T03:25:22.475Z,100465.59
2022-10-28T03:27:49.905Z,100472.75
2022-10-28T03:30:18.591Z,100472.75
2022-10-28T03:32:46.029Z,100463.13
2022-10-28T03:35:13.590Z,100468.13
2022-10-28T03:37:43.452Z,100463.13
2022-10-28T03:40:12.168Z,100456.47
2022-10-28T03:42:43.235Z,100448.00
2022-10-28T03:45:11.299Z,100445.63
2022-10-28T03:47:39.758Z,100450.81
2022-10-28T03:50:07.750Z,100443.84
2022-10-28T03:52:35.205Z,100443.38
2022-10-28T03:55:02.719Z,100461.97
2022-10-28T03:57:33.560Z,100452.16
2022-10-28T04:00:01.133Z,100454.72
2022-10-28T04:02:32.056Z,100447.22
2022-10-28T04:04:59.566Z,100447.44
2022-10-28T04:07:27.016Z,100443.88
2022-10-28T04:09:54.611Z,100447.44
2022-10-28T04:12:22.090Z,100429.66
2022-10-28T04:14:49.543Z,100433.97
2022-10-28T04:17:17.695Z,100434.53
2022-10-28T04:19:45.185Z,100435.16
2022-10-28T04:22:12.662Z,100433.59
2022-10-28T04:24:40.236Z,100439.47
2022-10-28T04:27:07.676Z,100435.63
2022-10-28T04:29:35.192Z,100437.56
2022-10-28T04:32:02.940Z,100434.44
2022-10-28T04:34:30.450Z,100442.97
2022-10-28T04:36:58.040Z,100430.03
2022-10-28T04:39:25.524Z,100436.38
2022-10-28T04:41:53.175Z,100433.06
2022-10-28T04:44:20.588Z,100436.66
2022-10-28T04:46:48.149Z,100432.44
2022-10-28T04:49:15.588Z,100440.47
2022-10-28T04:51:43.113Z,100442.16
2022-10-28T04:54:10.633Z,100438.09
2022-10-28T04:56:38.246Z,100449.31
2022-10-28T04:59:05.656Z,100438.81
2022-10-28T05:01:33.241Z,100449.31
2022-10-28T05:04:00.778Z,100437.22
2022-10-28T05:06:28.417Z,100440.38
2022-10-28T05:08:55.976Z,100439.38
2022-10-28T05:11:23.452Z,100440.31
2022-10-28T05:13:53.225Z,100435.19
2022-10-28T05:16:21.331Z,100434.28
2022-10-28T05:18:48.788Z,100423.97
2022-10-28T05:21:17.021Z,100436.94
2022-10-28T05:23:44.509Z,100433.59
2022-10-28T05:26:12.007Z,100437.03
2022-10-28T05:28:39.560Z,100432.38
2022-10-28T05:31:07.324Z,100436.13
2022-10-28T05:33:34.857Z,100437.00
2022-10-28T05:36:02.402Z,100448.19
2022-10-28T05:38:30.012Z,100445.44
2022-10-28T05:40:57.546Z,100439.63
2022-10-28T05:43:25.108Z,100444.47
2022-10-28T05:45:56.648Z,100449.47
2022-10-28T05:48:26.104Z,100450.19
2022-10-28T05:50:53.695Z,100448.31
2022-10-28T05:53:21.184Z,100451.50
2022-10-28T05:55:48.821Z,100452.28
2022-10-28T05:58:16.733Z,100456.78
2022-10-28T06:00:44.241Z,100442.88
2022-10-28T06:03:12.588Z,100436.44
2022-10-28T06:05:45.165Z,100433.56
2022-10-28T06:08:13.589Z,100437.78
2022-10-28T06:10:54.019Z,100440.72
2022-10-28T06:13:21.676Z,100436.78
2022-10-28T06:15:50.810Z,100433.78
2022-10-28T06:18:19.025Z,100435.81
2022-10-28T06:20:54.328Z,100436.44
2022-10-28T06:23:23.108Z,100439.69
2022-10-28T06:25:54.980Z,100436.13
2022-10-28T06:28:22.661Z,100430.84
2022-10-28T06:30:50.120Z,100433.69
2022-10-28T06:33:17.892Z,100432.19
2022-10-28T06:35:45.392Z,100433.16
2022-10-28T06:38:12.924Z,100433.34
2022-10-28T06:40:40.520Z,100438.63
2022-10-28T06:43:08.485Z,100434.31
2022-10-28T06:45:35.955Z,100437.03
2022-10-28T06:48:06.652Z,100424.88
2022-10-28T06:51:23.485Z,100425.41
2022-10-28T06:54:59.535Z,100420.56
2022-10-28T06:58:47.495Z,100421.00
2022-10-28T07:02:32.888Z,100420.81
2022-10-28T07:05:00.532Z,100419.94
2022-10-28T07:07:28.122Z,100423.47
2022-10-28T07:09:55.635Z,100424.53
2022-10-28T07:12:23.074Z,100414.47
2022-10-28T07:14:50.580Z,100416.69
2022-10-28T07:17:18.074Z,100411.75
2022-10-28T07:19:45.495Z,100418.63
2022-10-28T07:22:15.486Z,100407.66
2022-10-28T07:24:43.047Z,100397.69
2022-10-28T07:27:10.692Z,100404.47
2022-10-28T07:29:38.192Z,100406.44
2022-10-28T07:32:06.082Z,100400.44
2022-10-28T07:34:33.606Z,100405.91
2022-10-28T07:37:01.079Z,100404.41
2022-10-28T07:39:28.588Z,100407.47
2022-10-28T07:41:56.055Z,100409.22
2022-10-28T07:44:23.562Z,100403.22
2022-10-28T07:46:54.263Z,100406.19
2022-10-28T07:49:24.847Z,100408.09
2022-10-28T07:51:52.507Z,100419.50
2022-10-28T07:54:20.007Z,100411.41
2022-10-28T07:56:47.464Z,100403.19
2022-10-28T07:59:14.951Z,100411.19
2022-10-28T08:01:42.632Z,100410.22
2022-10-28T08:04:10.218Z,100395.16
2022-10-28T08:06:37.815Z,100409.72
2022-10-28T08:09:05.288Z,100408.44
2022-10-28T08:11:32.748Z,100394.38
2022-10-28T08:14:02.654Z,100401.41
2022-10-28T08:16:31.278Z,100396.19
2022-10-28T08:18:58.776Z,100397.81
2022-10-28T08:21:27.296Z,100397.50
2022-10-28T08:23:55.378Z,100399.25
2022-10-28T08:26:23.454Z,100403.13
2022-10-28T08:28:50.856Z,100394.72
2022-10-28T08:31:18.347Z,100401.84
2022-10-28T08:33:45.973Z,100396.84
2022-10-28T08:36:15.933Z,100398.63
2022-10-28T08:38:45.759Z,100397.06
2022-10-28T08:41:22.298Z,100401.78
2022-10-28T08:43:57.084Z,100402.59
2022-10-28T08:46:37.094Z,100403.31
2022-10-28T08:49:12.204Z,100403.81
2022-10-28T08:51:45.294Z,100394.34
2022-10-28T08:54:21.397Z,100391.91
2022-10-28T08:56:51.934Z,100387.69
2022-10-28T08:59:24.441Z,100378.56
2022-10-28T09:02:22.574Z,100376.50
2022-10-28T09:05:07.720Z,100366.72
2022-10-28T09:07:37.564Z,100369.25
2022-10-28T09:10:06.339Z,100360.19
2022-10-28T09:12:49.231Z,100362.41
2022-10-28T09:15:25.366Z,100367.75
2022-10-28T09:18:10.819Z,100355.94
2022-10-28T09:20:54.675Z,100351.28
2022-10-28T09:23:34.254Z,100347.44
2022-10-28T09:26:13.930Z,100352.66
2022-10-28T09:31:42.737Z,100334.69
2022-10-28T09:34:30.335Z,100332.69
2022-10-28T09:37:15.472Z,100327.69
2022-10-28T09:39:47.181Z,100319.16
2022-10-28T09:42:27.951Z,100321.22
2022-10-28T09:45:02.339Z,100305.81
2022-10-28T09:47:37.543Z,100302.38
2022-10-28T09:50:13.818Z,100311.63
2022-10-28T09:52:56.618Z,100305.66
2022-10-28T09:55:24.559Z,100302.00
2022-10-28T09:57:52.467Z,100313.09
2022-10-28T10:00:20.525Z,100299.69
2022-10-28T10:02:49.237Z,100297.09
2022-10-28T10:05:18.718Z,100293.91
2022-10-28T10:07:51.251Z,100298.44
2022-10-28T10:10:29.068Z,100289.47
2022-10-28T10:12:59.853Z,100291.25
2022-10-28T10:15:33.375Z,100300.56
2022-10-28T10:18:04.131Z,100304.22
2022-10-28T10:21:01.434Z,100307.72
2022-10-28T10:23:30.604Z,100299.44
2022-10-28T10:26:12.246Z,100309.72
2022-10-28T10:28:48.992Z,100306.28
2022-10-28T10:31:21.213Z,100306.31
2022-10-28T10:33:52.074Z,100304.06
2022-10-28T10:36:23.724Z,100304.06
2022-10-28T10:38:54.514Z,100303.28
2022-10-28T10:41:39.631Z,100279.81
2022-10-28T10:44:22.373Z,100284.66
2022-10-28T10:47:06.486Z,100285.59
2022-10-28T10:49:36.059Z,100285.06
2022-10-28T10:52:10.222Z,100293.28
2022-10-28T10:54:38.442Z,100284.66
2022-10-28T10:57:22.580Z,100285.41
2022-10-28T10:59:53.590Z,100278.34
2022-10-28T11:02:23.816Z,100290.53
2022-10-28T11:05:04.675Z,100277.69
2022-10-28T11:07:33.042Z,100276.84
2022-10-28T11:10:02.014Z,100272.13
2022-10-28T11:12:32.211Z,100284.00
2022-10-28T11:15:05.308Z,100272.50
2022-10-28T11:17:34.807Z,100262.22
2022-10-28T11:20:27.816Z,100265.50
2022-10-28T11:23:16.171Z,100273.91
2022-10-28T11:25:50.734Z,100258.19
2022-10-28T11:28:20.949Z,100255.63
2022-10-28T11:31:17.800Z,100259.41
2022-10-28T11:34:11.287Z,100258.47
2022-10-28T11:36:57.044Z,100255.72
2022-10-28T11:39:34.911Z,100253.59
2022-10-28T11:42:22.721Z,100244.44
2022-10-28T11:44:50.131Z,100259.59
2022-10-28T11:47:43.956Z,100261.75
2022-10-28T11:50:25.121Z,100263.34
2022-10-28T11:53:19.369Z,100257.31
2022-10-28T11:56:21.648Z,100257.97
2022-10-28T11:58:58.175Z,100250.03
2022-10-28T12:01:38.900Z,100245.31
2022-10-28T12:04:26.899Z,100240.44
2022-10-28T12:07:11.757Z,100240.41
2022-10-28T12:09:45.301Z,100237.25
2022-10-28T12:12:29.026Z,100227.72
2022-10-28T12:15:12.266Z,100230.97
2022-10-28T12:17:47.034Z,100229.97
2022-10-28T12:20:31.542Z,100236.19
2022-10-28T12:23:03.210Z,100230.72
2022-10-28T12:25:39.900Z,100236.84
2022-10-28T12:28:32.476Z,100224.50
2022-10-28T12:31:01.866Z,100227.00
2022-10-28T12:33:39.565Z,100228.88
2022-10-28T12:36:07.038Z,100229.56
2022-10-28T12:38:43.019Z,100219.91
2022-10-28T12:41:48.138Z,100227.94
2022-10-28T12:44:26.455Z,100232.75
2022-10-28T12:46:57.576Z,100218.00
2022-10-28T12:49:35.928Z,100214.78
2022-10-28T12:52:16.666Z,100214.50
2022-10-28T12:54:54.353Z,100227.28
2022-10-28T12:57:25.133Z,100219.28
2022-10-28T12:59:59.967Z,100225.84
2022-10-28T13:02:35.677Z,100231.13
2022-10-28T13:05:04.886Z,100220.66
2022-10-28T13:07:46.002Z,100221.91
2022-10-28T13:10:28.162Z,100213.34
2022-10-28T13:13:07.970Z,100215.91
2022-10-28T13:16:08.691Z,100219.03
2022-10-28T13:18:41.855Z,100219.44
2022-10-28T13:21:38.286Z,100207.47
2022-10-28T13:24:13.212Z,100206.34
2022-10-28T13:26:45.732Z,100211.41
2022-10-28T13:29:29.326Z,100200.38
2022-10-28T13:31:56.910Z,100190.75
2022-10-28T13:34:34.114Z,100200.09
2022-10-28T13:37:06.051Z,100199.69
2022-10-28T13:39:36.221Z,100205.75
2022-10-28T13:42:13.030Z,100205.97
2022-10-28T13:44:55.498Z,100201.41
2022-10-28T13:47:34.392Z,100204.03
2022-10-28T13:50:08.506Z,100198.03
2022-10-28T13:53:18.050Z,100206.94
2022-10-28T13:55:46.574Z,100197.69
2022-10-28T13:58:31.958Z,100204.75
2022-10-28T14:01:39.747Z,100200.59
2022-10-28T14:04:32.126Z,100191.84
2022-10-28T14:07:06.555Z,100183.97
2022-10-28T14:09:36.000Z,100188.19
2022-10-28T14:12:17.818Z,100185.88
2022-10-28T14:15:14.591Z,100188.56
2022-10-28T14:18:00.921Z,100182.22
2022-10-28T14:20:43.542Z,100184.66
2022-10-28T14:23:22.930Z,100185.88
2022-10-28T14:25:50.423Z,100188.31
2022-10-28T14:28:29.914Z,100182.28
2022-10-28T14:31:10.441Z,100183.09
2022-10-28T14:33:46.937Z,100188.94
2022-10-28T14:36:20.269Z,100187.03
2022-10-28T14:38:53.382Z,100187.78
2022-10-28T14:41:55.458Z,100183.50
2022-10-28T14:44:40.973Z,100186.81
2022-10-28T14:47:50.429Z,100187.91
2022-10-28T14:50:28.477Z,100182.63
2022-10-28T14:52:57.374Z,100182.41
2022-10-28T14:55:31.178Z,100175.59
2022-10-28T14:58:24.347Z,100174.19
2022-10-28T15:01:17.388Z,100178.31
2022-10-28T15:03:54.697Z,100173.63
2022-10-28T15:06:39.480Z,100174.50
2022-10-28T15:09:19.839Z,100163.22
2022-10-28T15:12:00.824Z,100158.22
2022-10-28T15:14:55.940Z,100164.22
2022-10-28T15:17:27.053Z,100166.53
2022-10-28T15:19:59.612Z,100168.31
2022-10-28T15:22:32.328Z,100166.53
2022-10-28T15:25:02.486Z,100165.72
2022-10-28T15:27:37.205Z,100164.97
2022-10-28T15:30:14.130Z,100164.03
2022-10-28T15:32:41.925Z,100162.28
2022-10-28T15:35:30.692Z,100165.53
2022-10-28T15:38:01.146Z,100158.16
2022-10-28T15:40:35.500Z,100156.41
2022-10-28T15:43:17.042Z,100151.69
2022-10-28T15:45:46.220Z,100134.94
2022-10-28T15:48:19.499Z,100140.59
2022-10-28T15:51:14.592Z,100135.59
2022-10-28T15:53:46.348Z,100133.56
2022-10-28T15:56:30.183Z,100141.59
2022-10-28T15:59:07.331Z,100137.34
2022-10-28T16:01:40.013Z,100140.38
2022-10-28T16:04:33.689Z,100129.31
2022-10-28T16:07:07.963Z,100134.09
2022-10-28T16:09:42.611Z,100132.56
2022-10-28T16:12:36.249Z,100137.88
2022-10-28T16:15:04.060Z,100135.53
2022-10-28T16:17:36.427Z,100145.31
2022-10-28T16:20:27.618Z,100147.44
2022-10-28T16:22:55.396Z,100146.13
2022-10-28T16:25:23.188Z,100141.88
2022-10-28T16:27:52.418Z,100137.53
2022-10-28T16:30:20.162Z,100125.38
2022-10-28T16:32:49.648Z,100128.75
2022-10-28T16:35:22.901Z,100131.34
2022-10-28T16:37:55.191Z,100127.72
2022-10-28T16:43:23.798Z,100112.97
2022-10-28T16:45:53.229Z,100117.91
2022-10-28T16:48:24.205Z,100122.22
2022-10-28T16:50:54.745Z,100122.47
2022-10-28T16:53:22.912Z,100111.16
2022-10-28T16:55:50.854Z,100112.91
2022-10-28T16:58:21.812Z,100114.38
2022-10-28T17:00:53.078Z,100110.22
2022-10-28T17:03:20.520Z,100116.88
2022-10-28T17:05:48.672Z,100113.50
2022-10-28T17:08:16.202Z,100105.69
2022-10-28T17:10:43.875Z,100105.88
2022-10-28T17:13:16.001Z,100093.25
2022-10-28T17:15:45.698Z,100103.47
2022-10-28T17:18:15.163Z,100107.91
2022-10-28T17:20:42.695Z,100102.09
2022-10-28T17:23:10.355Z,100095.94
2022-10-28T17:25:39.017Z,100100.47
2022-10-28T17:28:06.554Z,100095.50
2022-10-28T17:30:34.214Z,100094.00
2022-10-28T17:33:01.772Z,100090.72
2022-10-28T17:35:29.465Z,100090.88
2022-10-28T17:37:58.850Z,100080.56
2022-10-28T17:40:26.499Z,100089.13
2022-10-28T17:42:54.632Z,100083.13
2022-10-28T17:45:22.343Z,100086.44
2022-10-28T17:47:51.031Z,100076.91
2022-10-28T17:50:18.704Z,100073.19
2022-10-28T17:52:46.254Z,100081.03
2022-10-28T17:55:13.918Z,100078.47
2022-10-28T17:57:41.540Z,100067.13
2022-10-28T18:00:09.875Z,100080.88
2022-10-28T18:02:40.554Z,100076.50
2022-10-28T18:05:08.570Z,100078.25
2022-10-28T18:07:36.031Z,100062.75
2022-10-28T18:10:03.780Z,100073.13
2022-10-28T18:12:31.405Z,100082.53
2022-10-28T18:14:58.955Z,100073.06
2022-10-28T18:17:26.646Z,100069.84
2022-10-28T18:19:57.846Z,100076.78
2022-10-28T18:24:57.978Z,100067.94
2022-10-28T18:27:25.453Z,100074.00
2022-10-28T18:29:53.050Z,100064.91
2022-10-28T18:32:20.562Z,100066.25
2022-10-28T18:34:48.136Z,100065.25
2022-10-28T18:37:15.719Z,100071.25
2022-10-28T18:39:43.262Z,100068.53
2022-10-28T18:42:12.413Z,100070.09
2022-10-28T18:44:41.498Z,100065.56
2022-10-28T18:47:09.047Z,100074.16
2022-10-28T18:49:36.602Z,100056.34
2022-10-28T18:52:04.293Z,100057.94
2022-10-28T18:54:34.346Z,100065.78
2022-10-28T18:57:01.909Z,100061.53
2022-10-28T18:59:29.424Z,100057.22
2022-10-28T19:01:57.010Z,100058.28
2022-10-28T19:04:24.650Z,100055.44
2022-10-28T19:06:52.144Z,100063.34
2022-10-28T19:09:19.586Z,100056.47
2022-10-28T19:11:47.050Z,100056.75
2022-10-28T19:14:14.623Z,100069.69
2022-10-28T19:16:42.073Z,100064.44
2022-10-28T19:19:09.636Z,100054.28
2022-10-28T19:21:37.232Z,100054.44
2022-10-28T19:24:05.480Z,100061.50
2022-10-28T19:26:34.445Z,100055.50
2022-10-28T19:29:04.887Z,100059.91
2022-10-28T19:31:36.148Z,100060.91
2022-10-28T19:34:06.364Z,100052.28
2022-10-28T19:36:34.130Z,100053.31
2022-10-28T19:39:03.357Z,100043.22
2022-10-28T19:41:30.975Z,100044.16
2022-10-28T19:44:01.357Z,100046.81
2022-10-28T19:46:34.456Z,100046.97
2022-10-28T19:49:05.358Z,100037.78
2022-10-28T19:51:38.893Z,100051.63
2022-10-28T19:54:11.218Z,100044.53
2022-10-28T19:56:42.825Z,100043.81
2022-10-28T19:59:10.426Z,100051.81
2022-10-28T20:01:39.909Z,100043.47
2022-10-28T20:04:09.969Z,100043.47
2022-10-28T20:06:39.608Z,100039.34
2022-10-28T20:09:07.622Z,100030.00
2022-10-28T20:11:37.923Z,100028.50
2022-10-28T20:14:12.021Z,100029.50
2022-10-28T20:16:43.085Z,100035.56
2022-10-28T20:19:11.271Z,100026.25
2022-10-28T20:21:39.263Z,100036.63
2022-10-28T20:24:08.205Z,100027.19
2022-10-28T20:26:38.153Z,100016.91
2022-10-28T20:29:07.136Z,100011.72
2022-10-28T20:31:34.828Z,100020.28
2022-10-28T20:34:04.166Z,100012.50
2022-10-28T20:36:35.840Z,100004.75
2022-10-28T20:39:10.878Z,100011.56
2022-10-28T20:41:40.595Z,100009.78
2022-10-28T20:44:08.814Z,100001.03
2022-10-28T20:46:36.634Z,99992.25
2022-10-28T20:49:04.749Z,99992.25
2022-10-28T20:51:33.278Z,99994.00
2022-10-28T20:54:02.062Z,99995.75
2022-10-28T20:56:32.503Z,99980.34
2022-10-28T20:59:00.222Z,99965.91
2022-10-28T21:01:31.106Z,99971.19
2022-10-28T21:04:01.667Z,99967.75
2022-10-28T21:06:30.727Z,99965.81
2022-10-28T21:08:59.117Z,99954.66
2022-10-28T21:11:28.517Z,99970.06
2022-10-28T21:13:58.581Z,99969.00
2022-10-28T21:16:27.502Z,99969.81
2022-10-28T21:18:55.775Z,99956.16
2022-10-28T21:21:24.654Z,99974.25
2022-10-28T21:23:52.105Z,99968.16
2022-10-28T21:26:19.944Z,99972.56
2022-10-28T21:28:52.327Z,99977.00
2022-10-28T21:31:20.992Z,99972.69
2022-10-28T21:36:20.059Z,99965.09
2022-10-28T21:38:47.920Z,99965.97
2022-10-28T21:41:19.043Z,99964.31
2022-10-28T21:43:49.061Z,99961.03
2022-10-28T21:46:18.206Z,99950.06
2022-10-28T21:48:45.797Z,99950.75
2022-10-28T21:51:16.371Z,99943.75
2022-10-28T21:53:45.091Z,99949.81
2022-10-28T21:56:17.707Z,99943.81
2022-10-28T21:58:48.118Z,99941.34
2022-10-28T22:01:19.352Z,99938.91
2022-10-28T22:03:47.064Z,99942.38
2022-10-28T22:06:15.055Z,99939.78
2022-10-28T22:08:42.985Z,99932.88
2022-10-28T22:11:14.835Z,99935.44
2022-10-28T22:13:42.707Z,99934.66
2022-10-28T22:16:12.640Z,99938.84
2022-10-28T22:18:40.366Z,99935.59
2022-10-28T22:21:19.989Z,99929.56
2022-10-28T22:23:48.466Z,99933.03
2022-10-28T22:26:19.254Z,99936.56
2022-10-28T22:28:47.321Z,99939.97
2022-10-28T22:31:18.386Z,99936.63
2022-10-28T22:36:16.949Z,99926.28
2022-10-28T22:38:45.344Z,99917.66
2022-10-28T22:41:15.676Z,99917.59
2022-10-28T22:43:45.743Z,99919.25
2022-10-28T22:46:15.254Z,99908.88
2022-10-28T22:48:43.491Z,99901.06
2022-10-28T22:51:11.375Z,99902.78
2022-10-28T22:53:39.966Z,99902.81
2022-10-28T22:56:09.161Z,99892.56
2022-10-28T22:58:36.922Z,99887.66
2022-10-28T23:01:15.750Z,99888.56
2022-10-28T23:03:48.932Z,99900.75
2022-10-28T23:06:18.636Z,99891.97
2022-10-28T23:08:47.491Z,99900.66
2022-10-28T23:11:16.577Z,99884.44
2022-10-28T23:13:44.398Z,99887.94
2022-10-28T23:16:14.635Z,99885.47
2022-10-28T23:18:43.591Z,99878.72
2022-10-28T23:21:13.307Z,99878.78
2022-10-28T23:23:41.842Z,99877.91
2022-10-28T23:26:11.092Z,99880.47
2022-10-28T23:28:38.933Z,99874.38
2022-10-28T23:31:07.183Z,99873.66
2022-10-28T23:33:35.127Z,99871.06
2022-10-28T23:36:03.930Z,99875.44
2022-10-28T23:38:32.187Z,99883.09
2022-10-28T23:41:06.753Z,99891.88
2022-10-28T23:43:34.554Z,99884.22
2022-10-28T23:46:02.136Z,99883.38
2022-10-28T23:48:30.196Z,99888.47
2022-10-28T23:50:58.049Z,99873.78
2022-10-28T23:53:25.816Z,99877.25
2022-10-28T23:55:53.616Z,99869.38
2022-10-28T23:58:22.634Z,99866.75
